CST,Max TemperatureF,Mean TemperatureF,Min TemperatureF,Max Dew PointF,MeanDew PointF,Min DewpointF,Max Humidity, Mean Humidity, Min Humidity, Max Sea Level PressureIn, Mean Sea Level PressureIn, Min Sea Level PressureIn, Max VisibilityMiles, Mean VisibilityMiles, Min VisibilityMiles, Max Wind SpeedMPH, Mean Wind SpeedMPH, Max Gust SpeedMPH,PrecipitationIn, CloudCover, Events, WindDirDegrees
2012-12-1,82,68,53,61,57,52,100,73,35,30.10,30.04,29.97,10,9,1,20,8,28,0.00,2,,176
2012-12-2,82,68,55,63,58,54,100,72,39,30.14,30.06,30.00,10,9,5,16,8,23,0.00,3,,174
2012-12-3,80,70,59,59,59,57,94,73,45,30.05,29.99,29.90,10,10,10,21,9,29,0.00,3,,177
2012-12-4,68,55,42,57,37,19,100,50,24,30.29,30.20,30.05,10,9,4,17,7,24,0.00,2,,347
2012-12-5,71,52,32,28,22,9,70,35,9,30.30,30.18,30.02,10,10,7,8,4,,0.00,2,,108
2012-12-6,78,56,35,45,37,23,87,52,23,30.03,29.89,29.78,10,10,10,15,4,23,0.00,0,,178
2012-12-7,71,56,42,55,45,36,88,68,46,29.92,29.86,29.80,10,10,10,10,3,,0.00,2,,245
2012-12-8,73,60,46,57,51,43,94,73,52,29.93,29.85,29.79,10,9,5,14,4,16,0.00,3,,185
2012-12-9,66,52,37,59,42,10,100,74,33,30.11,29.91,29.81,10,6,0,20,8,32,0.00,4,Fog,358
2012-12-10,42,32,21,21,12,7,74,43,27,30.21,30.14,30.08,10,10,10,25,14,37,0.00,2,,338
2012-12-11,50,32,15,16,12,9,79,46,22,30.22,30.13,30.08,10,10,10,8,2,,0.00,1,,140
2012-12-12,62,40,17,21,15,7,68,39,18,30.28,30.21,30.13,10,10,10,14,4,21,0.00,0,,168
2012-12-13,68,46,24,46,32,16,69,52,37,30.27,30.19,30.11,10,10,10,18,7,25,0.00,3,,170
2012-12-14,62,58,55,61,51,37,100,80,48,30.13,29.99,29.82,10,8,1,16,10,23,0.00,8,Rain,159
2012-12-15,71,60,48,52,37,27,88,48,20,29.98,29.92,29.87,10,10,9,14,5,17,0.00,3,,225
2012-12-16,71,56,41,43,35,28,81,50,20,29.88,29.82,29.75,10,10,6,17,4,25,0.00,2,,287
2012-12-17,68,55,42,32,24,18,50,35,16,29.98,29.90,29.84,10,10,10,18,9,29,0.00,1,,275
2012-12-18,77,54,30,28,24,19,75,38,13,29.92,29.84,29.76,10,10,4,14,4,17,0.00,0,,183
2012-12-19,82,62,41,59,41,7,100,49,13,30.02,29.72,29.59,10,8,1,33,9,46,0.00,2,,207
2012-12-20,51,36,21,21,5,-8,45,27,8,30.46,30.35,30.03,10,10,8,36,20,47,0.00,0,,326
2012-12-21,62,38,15,9,3,0,54,28,8,30.49,30.39,30.29,10,10,9,12,3,16,0.00,0,,174
2012-12-22,66,46,26,46,28,5,77,45,24,30.31,30.18,30.05,10,10,10,23,8,32,0.00,2,,182
2012-12-23,69,54,39,46,36,27,100,58,20,30.04,29.95,29.88,10,10,10,13,4,17,0.00,1,,207
2012-12-24,62,43,24,28,23,19,80,47,20,30.05,29.91,29.76,10,10,9,15,4,,0.00,2,,34
2012-12-25,50,38,26,39,26,16,93,68,37,30.22,29.90,29.60,10,7,2,31,13,39,0.61,8,Rain-Thunderstorm,333
2012-12-26,35,28,21,25,18,14,86,70,56,30.30,30.19,30.06,10,10,10,21,12,26,0.00,2,,3
2012-12-27,55,40,26,43,29,23,93,72,33,30.05,29.91,29.80,10,9,3,14,6,17,0.00,3,,157
2012-12-28,44,36,28,45,32,19,100,83,60,30.24,30.02,29.83,10,7,1,20,8,24,0.00,5,,330
2012-12-29,50,34,19,25,21,16,93,66,30,30.45,30.37,30.25,10,10,9,7,2,,0.00,0,,212
2012-12-30,46,36,26,30,22,14,93,58,27,30.40,30.29,30.14,10,10,10,17,6,22,0.00,3,Rain,149
2012-12-31,62,50,39,50,43,30,100,84,55,30.15,30.01,29.95,10,10,6,13,7,18,0.00,6,Rain,166